Time;durP1;ratioP1;P1;durP2;ratioP2;P2;SDS_P1;SDS_P2;PMS_P1;PMS_P2;Temp;Humidity;BMP_temperature;BMP_pressure;BME280_temperature;BME280_humidity;BME280_pressure;Samples;Min_cycle;Max_cycle;Signal;HPM_P1;HPM_P2
2023/02/22 00:00:41;;;;;;;12.25;4.72;;;4.80;90.50;;;;;;4977026;28;87295;-72
2023/02/22 00:03:24;;;;;;;11.30;4.70;;;4.70;90.50;;;;;;4977289;28;87642;-72
2023/02/22 00:05:57;;;;;;;13.85;4.68;;;4.70;90.50;;;;;;4976112;28;87571;-72
2023/02/22 00:08:24;;;;;;;13.13;4.50;;;4.70;91.10;;;;;;4975669;28;87259;-72
2023/02/22 00:10:50;;;;;;;13.95;4.80;;;4.70;91.20;;;;;;4977133;28;87572;-72
2023/02/22 00:13:18;;;;;;;17.00;5.53;;;4.60;91.00;;;;;;4986324;28;89105;-71
2023/02/22 00:15:44;;;;;;;12.45;5.07;;;4.70;91.70;;;;;;4981870;28;89207;-74
2023/02/22 00:18:18;;;;;;;12.35;5.15;;;4.60;91.50;;;;;;4971246;28;89453;-71
2023/02/22 00:20:44;;;;;;;15.90;4.95;;;4.50;91.50;;;;;;4979640;28;87586;-71
2023/02/22 00:23:20;;;;;;;14.00;4.88;;;4.50;91.30;;;;;;4979868;28;87379;-72
2023/02/22 00:25:47;;;;;;;11.60;4.30;;;4.40;91.60;;;;;;4979106;28;87815;-71
2023/02/22 00:28:14;;;;;;;13.02;5.25;;;4.40;91.00;;;;;;4979483;28;87626;-72
2023/02/22 00:30:42;;;;;;;13.13;4.85;;;4.40;91.80;;;;;;4964844;28;88984;-72
2023/02/22 00:33:10;;;;;;;13.05;4.88;;;4.30;91.80;;;;;;4979904;28;86813;-72
2023/02/22 00:35:35;;;;;;;15.05;5.53;;;4.30;92.00;;;;;;4979562;28;87654;-71
2023/02/22 00:38:02;;;;;;;19.70;4.82;;;4.30;92.30;;;;;;4977461;28;87982;-71
2023/02/22 00:40:33;;;;;;;11.70;4.63;;;4.30;91.90;;;;;;4985292;28;88307;-71
2023/02/22 00:43:01;;;;;;;12.68;5.20;;;4.20;92.10;;;;;;4986935;28;87572;-71
2023/02/22 00:45:29;;;;;;;11.27;4.75;;;4.20;92.20;;;;;;4978241;28;88623;-72
2023/02/22 00:47:55;;;;;;;11.32;4.78;;;4.20;92.30;;;;;;4991815;28;89129;-73
2023/02/22 00:50:22;;;;;;;11.27;5.00;;;4.20;92.70;;;;;;4989114;28;87528;-72
2023/02/22 00:52:48;;;;;;;12.48;5.18;;;4.10;93.00;;;;;;4999171;28;87169;-72
2023/02/22 00:55:18;;;;;;;14.52;5.00;;;4.10;92.90;;;;;;4989101;28;88100;-72
2023/02/22 00:57:44;;;;;;;14.18;5.47;;;4.00;92.20;;;;;;4978241;28;87488;-72
2023/02/22 01:00:19;;;;;;;12.55;5.18;;;4.10;93.10;;;;;;4989037;28;87085;-72
2023/02/22 01:02:49;;;;;;;14.00;5.38;;;4.00;93.60;;;;;;4998079;28;87412;-72
2023/02/22 01:05:16;;;;;;;14.93;4.63;;;4.00;94.00;;;;;;4977696;28;88585;-71
2023/02/22 01:07:42;;;;;;;12.90;5.25;;;4.00;92.90;;;;;;4980649;28;88391;-72
2023/02/22 01:10:09;;;;;;;16.02;5.10;;;4.00;92.70;;;;;;4981481;28;87163;-72
2023/02/22 01:12:35;;;;;;;11.27;4.65;;;3.90;92.40;;;;;;4979881;28;88152;-73
2023/02/22 01:15:09;;;;;;;13.15;4.95;;;3.90;92.80;;;;;;4970576;28;89172;-73
2023/02/22 01:17:36;;;;;;;12.70;4.75;;;3.80;93.00;;;;;;4961731;28;89977;-72
2023/02/22 01:20:09;;;;;;;11.02;4.60;;;3.80;93.00;;;;;;4980880;28;87060;-72
2023/02/22 01:22:34;;;;;;;12.60;5.28;;;3.80;92.80;;;;;;4979591;28;86475;-73
2023/02/22 01:25:00;;;;;;;12.98;5.43;;;3.80;93.60;;;;;;4980202;28;88222;-72
2023/02/22 01:27:26;;;;;;;11.65;4.80;;;3.70;93.60;;;;;;4981133;28;87446;-73
2023/02/22 01:29:52;;;;;;;15.73;6.07;;;3.70;93.20;;;;;;4998327;28;88361;-73
2023/02/22 01:32:18;;;;;;;12.00;4.72;;;3.60;93.60;;;;;;4984938;28;87181;-73
2023/02/22 01:34:45;;;;;;;11.75;4.97;;;3.60;93.80;;;;;;4977521;28;87400;-73
2023/02/22 01:37:10;;;;;;;14.80;5.20;;;3.60;94.10;;;;;;4980083;28;87327;-73
2023/02/22 01:39:36;;;;;;;14.88;5.05;;;3.50;94.00;;;;;;4997568;28;87544;-73
2023/02/22 01:42:02;;;;;;;15.23;4.82;;;3.60;93.70;;;;;;4979416;28;87472;-73
2023/02/22 01:44:34;;;;;;;15.88;5.00;;;3.50;93.60;;;;;;4979133;28;88431;-73
2023/02/22 01:47:02;;;;;;;14.85;5.53;;;3.50;94.00;;;;;;4975091;28;87824;-73
2023/02/22 01:49:46;;;;;;;12.82;4.95;;;3.50;93.60;;;;;;4983854;28;88700;-73
2023/02/22 01:52:19;;;;;;;11.95;4.18;;;3.50;93.60;;;;;;4976357;28;89077;-73
2023/02/22 01:54:53;;;;;;;11.60;4.88;;;3.40;93.90;;;;;;4995530;28;88635;-73
2023/02/22 01:57:25;;;;;;;11.20;4.70;;;3.40;94.30;;;;;;4981885;28;87957;-73
2023/02/22 01:59:57;;;;;;;13.73;4.78;;;3.40;94.10;;;;;;4978159;28;87547;-73
2023/02/22 02:02:24;;;;;;;13.18;4.65;;;3.40;93.90;;;;;;4978335;28;87208;-73
2023/02/22 02:04:53;;;;;;;12.43;4.50;;;3.30;93.70;;;;;;4986078;28;87758;-73
2023/02/22 02:07:21;;;;;;;14.93;5.13;;;3.30;93.60;;;;;;4977483;28;87687;-73
2023/02/22 02:10:03;;;;;;;12.27;4.75;;;3.20;93.90;;;;;;4990534;28;87321;-72
2023/02/22 02:12:31;;;;;;;12.85;4.60;;;3.20;94.30;;;;;;4965515;28;86680;-73
2023/02/22 02:15:35;;;;;;;15.73;4.90;;;3.20;94.00;;;;;;4977677;28;88188;-72
2023/02/22 02:18:10;;;;;;;10.80;4.20;;;3.20;94.30;;;;;;4940247;28;87821;-71
2023/02/22 02:20:56;;;;;;;14.65;4.78;;;3.20;94.30;;;;;;4935513;28;88406;-71
2023/02/22 02:23:58;;;;;;;12.57;5.13;;;3.10;94.60;;;;;;4962322;28;89700;-71
2023/02/22 02:26:45;;;;;;;13.75;4.65;;;3.10;94.90;;;;;;4974797;28;89971;-72
2023/02/22 02:29:41;;;;;;;13.75;4.80;;;3.10;94.00;;;;;;4977487;28;88544;-71
2023/02/22 02:32:28;;;;;;;14.15;4.93;;;3.10;94.10;;;;;;4984339;28;87325;-71
2023/02/22 02:35:00;;;;;;;13.52;5.18;;;3.10;94.00;;;;;;4982793;28;87949;-71
2023/02/22 02:37:52;;;;;;;13.05;5.30;;;3.10;93.80;;;;;;4976422;28;88349;-72
2023/02/22 02:40:52;;;;;;;17.35;5.53;;;3.00;94.10;;;;;;4966760;28;87367;-72
2023/02/22 02:44:09;;;;;;;20.52;5.60;;;3.00;94.30;;;;;;4970911;28;87647;-74
2023/02/22 02:46:45;;;;;;;12.15;4.60;;;3.00;94.30;;;;;;4938349;28;88156;-73
2023/02/22 02:49:15;;;;;;;17.15;5.30;;;3.00;94.10;;;;;;4944153;28;88947;-73
2023/02/22 02:51:46;;;;;;;13.68;5.30;;;3.00;94.30;;;;;;4958427;28;89566;-73
2023/02/22 02:54:14;;;;;;;15.32;5.45;;;3.00;94.10;;;;;;4976804;28;88872;-73
2023/02/22 02:56:41;;;;;;;19.35;5.30;;;3.00;94.80;;;;;;4988346;28;87236;-72
2023/02/22 02:59:29;;;;;;;11.95;4.53;;;2.90;94.60;;;;;;4996604;28;88825;-73
2023/02/22 03:02:19;;;;;;;18.15;5.18;;;2.90;94.10;;;;;;4974885;28;88882;-73
2023/02/22 03:05:22;;;;;;;14.32;5.00;;;2.90;94.50;;;;;;4975951;28;88975;-73
2023/02/22 03:08:10;;;;;;;11.85;4.85;;;2.90;94.60;;;;;;4976247;28;86829;-73
2023/02/22 03:10:44;;;;;;;10.77;4.93;;;2.80;94.80;;;;;;4977075;28;87604;-72
2023/02/22 03:13:24;;;;;;;11.93;4.40;;;2.80;94.80;;;;;;4964316;28;87302;-73
2023/02/22 03:16:43;;;;;;;13.82;4.93;;;2.80;96.00;;;;;;4972527;28;89670;-73
2023/02/22 03:19:12;;;;;;;14.38;4.57;;;2.80;97.20;;;;;;4934988;28;87550;-73
2023/02/22 03:21:50;;;;;;;12.80;4.82;;;2.70;96.90;;;;;;4935941;28;87794;-73
2023/02/22 03:24:43;;;;;;;16.38;4.97;;;2.70;96.90;;;;;;4962704;28;88232;-72
2023/02/22 03:27:20;;;;;;;10.77;4.40;;;2.70;96.40;;;;;;4964299;28;87593;-72
2023/02/22 03:29:50;;;;;;;12.85;5.05;;;2.70;96.20;;;;;;4977259;28;87404;-72
2023/02/22 03:32:22;;;;;;;12.88;4.65;;;2.60;96.30;;;;;;4976995;28;87489;-72
2023/02/22 03:35:22;;;;;;;11.85;4.10;;;2.70;95.80;;;;;;4982013;28;88110;-72
2023/02/22 03:37:52;;;;;;;12.60;4.93;;;2.60;95.30;;;;;;4981017;28;89200;-72
2023/02/22 03:40:25;;;;;;;12.30;4.75;;;2.60;96.00;;;;;;4981014;28;87429;-72
2023/02/22 03:43:05;;;;;;;14.23;4.82;;;2.60;96.80;;;;;;4965603;28;90996;-72
2023/02/22 03:45:33;;;;;;;11.35;4.97;;;2.50;96.60;;;;;;4983967;28;89455;-72
2023/02/22 03:48:14;;;;;;;10.65;4.32;;;2.50;96.10;;;;;;4998145;28;87504;-72
2023/02/22 03:50:40;;;;;;;11.73;4.18;;;2.50;95.80;;;;;;4996178;28;87555;-72
2023/02/22 03:53:06;;;;;;;13.75;5.30;;;2.40;96.30;;;;;;4979916;28;87631;-72
2023/02/22 03:55:33;;;;;;;12.55;5.07;;;2.40;96.80;;;;;;4979661;28;88607;-72
2023/02/22 03:58:03;;;;;;;14.77;4.78;;;2.30;97.20;;;;;;4990673;28;87329;-72
2023/02/22 04:00:31;;;;;;;10.50;4.32;;;2.30;96.80;;;;;;4999430;28;86712;-72
2023/02/22 04:02:57;;;;;;;14.90;4.75;;;2.30;96.20;;;;;;4978611;28;88191;-72
2023/02/22 04:05:23;;;;;;;13.60;5.13;;;2.30;96.00;;;;;;4976654;28;87319;-72
2023/02/22 04:07:51;;;;;;;13.00;5.20;;;2.30;96.60;;;;;;4979707;28;88326;-72
2023/02/22 04:10:17;;;;;;;13.32;4.95;;;2.30;96.50;;;;;;4981092;28;87583;-73
2023/02/22 04:12:43;;;;;;;14.38;5.57;;;2.20;96.20;;;;;;4977594;28;88300;-72
2023/02/22 04:15:14;;;;;;;12.80;5.05;;;2.20;97.50;;;;;;4979697;28;87975;-72
2023/02/22 04:17:40;;;;;;;;;;;2.30;97.00;;;;;;4980151;28;87997;-72
2023/02/22 04:20:06;;;;;;;12.48;4.63;;;2.30;96.70;;;;;;4981672;28;87342;-72
2023/02/22 04:22:31;;;;;;;11.45;4.65;;;2.20;96.20;;;;;;4973913;28;87539;-72
2023/02/22 04:24:57;;;;;;;13.40;4.93;;;2.20;96.20;;;;;;4968425;28;87360;-71
2023/02/22 04:27:23;;;;;;;14.77;5.40;;;2.20;96.00;;;;;;4971180;28;87149;-72
2023/02/22 04:29:48;;;;;;;10.90;4.30;;;2.10;95.90;;;;;;4967042;28;87458;-72
2023/02/22 04:32:15;;;;;;;15.43;5.13;;;2.10;95.50;;;;;;4964560;28;89800;-73
2023/02/22 04:34:40;;;;;;;12.15;4.95;;;2.10;95.70;;;;;;4964733;28;88949;-73
2023/02/22 04:37:06;;;;;;;13.85;4.93;;;2.10;96.00;;;;;;4973957;28;88297;-73
2023/02/22 04:39:32;;;;;;;14.95;5.03;;;2.00;96.10;;;;;;4964430;28;89016;-73
2023/02/22 04:41:58;;;;;;;12.70;4.97;;;2.00;95.80;;;;;;4964569;28;87890;-73
2023/02/22 04:44:23;;;;;;;23.17;5.57;;;1.90;95.80;;;;;;4976479;28;87482;-73
2023/02/22 04:46:49;;;;;;;15.70;5.10;;;1.90;96.00;;;;;;4980744;28;87023;-70
2023/02/22 04:49:15;;;;;;;13.70;5.63;;;1.90;95.80;;;;;;4986215;28;86797;-71
2023/02/22 04:51:41;;;;;;;15.15;6.07;;;1.80;95.80;;;;;;4979490;28;87517;-71
2023/02/22 04:54:07;;;;;;;17.70;5.95;;;1.80;95.80;;;;;;4981915;28;87558;-71
2023/02/22 04:56:33;;;;;;;16.88;5.60;;;1.80;95.40;;;;;;4972605;28;88700;-71
2023/02/22 04:58:58;;;;;;;16.10;5.43;;;1.70;95.30;;;;;;4961847;28;88580;-71
2023/02/22 05:01:24;;;;;;;14.95;5.55;;;1.70;95.70;;;;;;4961123;28;90596;-71
2023/02/22 05:03:50;;;;;;;16.48;5.72;;;1.70;95.80;;;;;;4978730;28;88161;-71
2023/02/22 05:06:17;;;;;;;14.43;5.65;;;1.70;95.50;;;;;;4978760;28;87287;-72
2023/02/22 05:08:43;;;;;;;16.02;5.85;;;1.70;95.20;;;;;;4988838;28;87741;-72
2023/02/22 05:11:08;;;;;;;14.75;5.88;;;1.70;95.20;;;;;;4975613;28;89125;-73
2023/02/22 05:13:34;;;;;;;18.98;5.95;;;1.60;95.50;;;;;;4976624;28;87839;-72
2023/02/22 05:16:01;;;;;;;17.73;5.68;;;1.70;95.40;;;;;;4973053;28;87758;-73
2023/02/22 05:18:26;;;;;;;16.08;5.80;;;1.70;95.30;;;;;;4978990;28;87694;-72
2023/02/22 05:20:52;;;;;;;14.52;5.57;;;1.70;95.20;;;;;;4984411;28;89155;-73
2023/02/22 05:23:18;;;;;;;17.00;5.35;;;1.60;95.10;;;;;;4979094;28;88972;-72
2023/02/22 05:25:44;;;;;;;15.25;5.43;;;1.70;95.20;;;;;;4987300;28;87239;-71
2023/02/22 05:28:12;;;;;;;13.57;5.18;;;1.60;95.50;;;;;;4989212;28;87594;-72
2023/02/22 05:30:41;;;;;;;21.55;5.45;;;1.60;95.90;;;;;;4985955;28;88108;-72
2023/02/22 05:33:07;;;;;;;14.95;5.85;;;1.70;95.90;;;;;;4973869;28;87755;-72
2023/02/22 05:35:33;;;;;;;18.15;5.80;;;1.70;96.20;;;;;;4999280;28;87471;-72
2023/02/22 05:38:01;;;;;;;19.23;6.18;;;1.70;96.10;;;;;;4980392;28;86717;-72
2023/02/22 05:40:28;;;;;;;13.27;5.30;;;1.80;96.10;;;;;;4974829;28;87531;-72
2023/02/22 05:42:55;;;;;;;17.30;5.90;;;1.80;96.00;;;;;;4978644;28;87953;-72
2023/02/22 05:45:23;;;;;;;13.30;5.07;;;1.80;96.10;;;;;;4978366;28;88534;-71
2023/02/22 05:47:50;;;;;;;19.08;5.80;;;1.90;96.30;;;;;;4968992;28;87365;-71
2023/02/22 05:50:16;;;;;;;14.45;5.18;;;1.90;96.20;;;;;;4979501;28;88669;-72
2023/02/22 05:52:42;;;;;;;12.52;5.35;;;2.00;95.80;;;;;;4982411;28;87947;-72
2023/02/22 05:55:10;;;;;;;15.05;5.78;;;2.10;95.70;;;;;;4980694;28;87330;-72
2023/02/22 05:57:36;;;;;;;15.20;5.00;;;2.10;95.40;;;;;;4977358;28;89382;-71
2023/02/22 06:00:05;;;;;;;16.05;5.53;;;2.20;95.50;;;;;;4989350;28;88008;-72
2023/02/22 06:02:32;;;;;;;15.35;5.05;;;2.20;95.40;;;;;;4980180;28;88469;-72
2023/02/22 06:04:58;;;;;;;14.18;5.22;;;2.30;95.00;;;;;;4975720;28;87579;-72
2023/02/22 06:07:24;;;;;;;17.55;5.35;;;2.40;94.70;;;;;;4978454;28;87723;-72
2023/02/22 06:09:50;;;;;;;16.00;5.75;;;2.40;94.70;;;;;;4969681;28;88623;-72
2023/02/22 06:12:15;;;;;;;12.55;5.10;;;2.50;94.90;;;;;;4967783;28;89413;-72
2023/02/22 06:14:44;;;;;;;16.65;4.85;;;2.60;94.80;;;;;;4993568;28;86982;-72
2023/02/22 06:17:12;;;;;;;16.90;5.55;;;2.60;94.60;;;;;;4978758;28;87902;-73
2023/02/22 06:19:39;;;;;;;15.43;5.75;;;2.70;94.10;;;;;;4978730;28;88009;-73
2023/02/22 06:22:05;;;;;;;18.52;6.03;;;2.80;93.80;;;;;;4976490;28;89465;-73
2023/02/22 06:24:31;;;;;;;19.10;6.10;;;2.80;93.60;;;;;;4976106;28;87550;-73
2023/02/22 06:26:58;;;;;;;14.00;5.18;;;2.90;93.40;;;;;;4968811;28;86368;-73
2023/02/22 06:29:25;;;;;;;14.38;4.85;;;3.00;93.00;;;;;;4966564;28;89060;-73
2023/02/22 06:31:51;;;;;;;17.60;5.10;;;3.10;92.80;;;;;;4970933;28;87617;-73
2023/02/22 06:34:17;;;;;;;14.13;4.63;;;3.20;92.40;;;;;;4974656;28;88598;-70
2023/02/22 06:36:46;;;;;;;14.23;4.60;;;3.30;92.30;;;;;;4972548;28;89205;-71
2023/02/22 06:39:14;;;;;;;10.88;4.20;;;3.40;92.00;;;;;;4970385;28;89920;-71
2023/02/22 06:41:41;;;;;;;14.07;4.00;;;3.40;92.00;;;;;;4972477;28;90825;-71
2023/02/22 06:44:09;;;;;;;18.15;6.43;;;3.50;91.60;;;;;;4989634;28;87559;-71
2023/02/22 06:46:36;;;;;;;18.25;6.68;;;3.60;91.20;;;;;;4973832;28;87681;-71
2023/02/22 06:49:02;;;;;;;19.27;6.57;;;3.70;90.90;;;;;;4973700;28;90241;-71
2023/02/22 06:51:28;;;;;;;20.02;6.65;;;3.80;91.00;;;;;;4978077;28;87283;-72
2023/02/22 06:53:54;;;;;;;18.13;6.72;;;4.00;90.60;;;;;;4980625;28;88745;-71
2023/02/22 06:56:20;;;;;;;15.45;6.13;;;4.10;90.50;;;;;;4970775;28;87556;-72
2023/02/22 06:58:46;;;;;;;14.38;6.43;;;4.20;90.00;;;;;;4976370;28;88786;-73
2023/02/22 07:01:12;;;;;;;17.75;6.15;;;4.20;89.90;;;;;;4974700;28;89234;-72
2023/02/22 07:03:38;;;;;;;17.38;6.20;;;4.40;89.30;;;;;;4972629;28;87468;-72
2023/02/22 07:06:05;;;;;;;12.70;4.53;;;4.40;89.40;;;;;;4967775;28;88584;-71
2023/02/22 07:08:31;;;;;;;15.73;4.90;;;4.50;88.40;;;;;;4970877;28;88321;-72
2023/02/22 07:10:56;;;;;;;9.93;4.53;;;4.60;87.90;;;;;;4968632;28;87888;-72
2023/02/22 07:13:22;;;;;;;20.00;4.10;;;4.70;87.80;;;;;;4969383;28;87744;-72
2023/02/22 07:15:48;;;;;;;10.18;3.42;;;4.70;87.00;;;;;;4968736;28;86535;-70
2023/02/22 07:18:15;;;;;;;9.18;2.80;;;4.90;86.80;;;;;;4977030;28;88092;-72
2023/02/22 07:20:41;;;;;;;9.07;1.73;;;5.00;86.20;;;;;;4965785;28;89057;-70
2023/02/22 07:23:07;;;;;;;6.95;2.28;;;5.10;86.10;;;;;;4978608;28;88171;-72
2023/02/22 07:25:33;;;;;;;6.93;1.83;;;5.20;86.00;;;;;;4973712;28;87460;-71
2023/02/22 07:27:59;;;;;;;6.93;1.95;;;5.40;85.80;;;;;;4979257;28;87657;-71
2023/02/22 07:30:29;;;;;;;10.32;2.05;;;5.40;85.80;;;;;;4971604;28;88018;-72
2023/02/22 07:32:56;;;;;;;11.88;2.28;;;5.50;84.40;;;;;;4976033;28;87546;-72
2023/02/22 07:35:46;;;;;;;16.38;4.07;;;5.60;84.80;;;;;;4969236;28;90088;-73
2023/02/22 07:38:13;;;;;;;17.52;4.78;;;5.70;84.10;;;;;;4971443;28;89330;-72
2023/02/22 07:40:40;;;;;;;16.98;4.90;;;5.80;84.00;;;;;;4968965;28;87587;-72
2023/02/22 07:43:26;;;;;;;17.60;3.25;;;5.80;84.20;;;;;;4970822;28;87366;-71
2023/02/22 07:45:54;;;;;;;12.70;3.10;;;5.90;83.80;;;;;;4968586;28;88725;-71
2023/02/22 07:48:22;;;;;;;18.40;3.28;;;6.10;83.20;;;;;;4975000;28;88399;-70
2023/02/22 07:50:48;;;;;;;8.32;2.47;;;6.20;83.50;;;;;;4974819;28;88724;-73
2023/02/22 07:53:19;;;;;;;7.15;2.10;;;6.40;82.70;;;;;;4974458;28;88504;-71
2023/02/22 07:55:49;;;;;;;8.57;2.15;;;6.50;81.60;;;;;;4974173;28;87289;-71
2023/02/22 07:58:17;;;;;;;6.97;2.30;;;6.80;81.60;;;;;;4971911;28;87539;-71
2023/02/22 08:00:43;;;;;;;7.47;2.10;;;7.00;82.30;;;;;;4974645;28;87897;-71
2023/02/22 08:03:11;;;;;;;7.43;1.92;;;7.10;79.40;;;;;;4980018;28;87479;-71
2023/02/22 08:05:39;;;;;;;8.70;2.20;;;7.40;79.30;;;;;;4977875;28;86671;-70
2023/02/22 08:08:06;;;;;;;7.35;1.95;;;7.70;78.70;;;;;;4978600;28;87791;-72
2023/02/22 08:10:33;;;;;;;6.68;2.20;;;7.90;77.80;;;;;;4967919;28;87697;-72
2023/02/22 08:13:00;;;;;;;9.18;2.15;;;8.10;76.30;;;;;;4976122;28;88215;-72
2023/02/22 08:15:28;;;;;;;11.45;2.20;;;8.40;75.50;;;;;;4988677;28;87076;-73
2023/02/22 08:17:55;;;;;;;10.95;2.20;;;8.60;75.00;;;;;;4992623;28;88640;-72
2023/02/22 08:20:21;;;;;;;15.10;2.20;;;8.70;74.10;;;;;;4977972;28;87674;-72
2023/02/22 08:22:48;;;;;;;9.10;2.00;;;9.00;73.20;;;;;;4977448;28;87329;-73
2023/02/22 08:25:16;;;;;;;11.93;2.25;;;9.70;71.50;;;;;;4976227;28;87377;-73
2023/02/22 08:27:42;;;;;;;8.15;1.85;;;10.30;70.20;;;;;;4980835;28;88301;-73
2023/02/22 08:30:13;;;;;;;7.47;2.33;;;10.60;69.60;;;;;;4975355;28;87739;-73
2023/02/22 08:32:39;;;;;;;12.95;2.47;;;10.70;67.80;;;;;;4984182;28;87229;-73
2023/02/22 08:35:05;;;;;;;5.75;2.15;;;10.80;67.00;;;;;;4973776;28;88006;-72
2023/02/22 08:37:30;;;;;;;10.60;2.20;;;10.80;67.50;;;;;;4972979;28;89553;-73
2023/02/22 08:39:56;;;;;;;9.68;2.65;;;11.00;66.50;;;;;;4994287;28;87982;-73
2023/02/22 08:42:22;;;;;;;7.88;2.28;;;10.90;65.70;;;;;;4980347;28;87743;-73
2023/02/22 08:44:48;;;;;;;10.35;2.50;;;11.10;66.10;;;;;;4969367;28;87576;-72
2023/02/22 08:47:14;;;;;;;16.80;3.50;;;11.40;66.60;;;;;;4965264;28;88484;-73
2023/02/22 08:49:41;;;;;;;10.48;3.25;;;11.80;64.10;;;;;;4977093;28;88028;-72
2023/02/22 08:52:07;;;;;;;8.93;2.10;;;12.10;63.70;;;;;;4977523;28;87448;-73
2023/02/22 08:54:33;;;;;;;7.07;2.30;;;12.30;61.70;;;;;;4977825;28;86712;-73
2023/02/22 08:56:58;;;;;;;6.07;2.60;;;12.40;60.80;;;;;;4974784;28;87901;-74
2023/02/22 08:59:24;;;;;;;8.93;2.50;;;12.80;61.20;;;;;;4969260;28;87713;-73
2023/02/22 09:01:50;;;;;;;28.83;3.05;;;13.90;58.90;;;;;;4976990;28;89203;-73
2023/02/22 09:04:16;;;;;;;8.88;2.33;;;15.50;54.80;;;;;;4975555;28;87452;-73
2023/02/22 09:06:43;;;;;;;7.53;2.28;;;16.20;52.60;;;;;;4971618;28;88441;-73
2023/02/22 09:09:08;;;;;;;5.80;2.35;;;17.30;50.60;;;;;;4991799;28;88698;-73
2023/02/22 09:11:34;;;;;;;10.88;3.38;;;17.50;51.00;;;;;;4997063;28;87503;-73
2023/02/22 09:14:00;;;;;;;12.00;3.67;;;17.30;49.00;;;;;;4976538;28;87497;-72
2023/02/22 09:16:26;;;;;;;9.70;3.30;;;16.80;50.20;;;;;;4968093;28;87280;-72
2023/02/22 09:18:52;;;;;;;9.45;3.00;;;16.40;52.60;;;;;;4975497;28;88072;-72
2023/02/22 09:21:17;;;;;;;9.95;2.97;;;16.50;51.70;;;;;;4966631;28;87629;-72
2023/02/22 09:23:46;;;;;;;9.30;2.97;;;16.90;51.60;;;;;;4968966;28;87397;-72
2023/02/22 09:26:14;;;;;;;13.15;3.15;;;17.60;50.40;;;;;;4977563;28;88736;-72
2023/02/22 09:28:40;;;;;;;9.45;2.70;;;18.00;49.00;;;;;;4978466;28;88942;-72
2023/02/22 09:31:07;;;;;;;11.07;3.25;;;18.60;48.00;;;;;;4975524;28;88640;-73
2023/02/22 09:33:33;;;;;;;9.55;2.78;;;18.80;47.50;;;;;;4973838;28;87728;-74
2023/02/22 09:35:59;;;;;;;11.25;2.88;;;20.30;46.30;;;;;;4965782;28;89659;-73
2023/02/22 09:38:25;;;;;;;8.90;2.75;;;21.20;44.90;;;;;;4982447;28;87506;-72
2023/02/22 09:41:06;;;;;;;7.40;2.65;;;21.30;44.30;;;;;;4971031;28;87890;-73
2023/02/22 09:43:48;;;;;;;8.90;2.92;;;22.30;44.10;;;;;;4974783;28;86899;-73
2023/02/22 09:46:33;;;;;;;11.45;3.10;;;22.10;42.60;;;;;;4971768;28;87698;-72
2023/02/22 09:49:20;;;;;;;6.07;3.03;;;22.70;41.60;;;;;;4974914;28;88038;-72
2023/02/22 09:52:04;;;;;;;7.90;2.78;;;22.60;42.00;;;;;;4972705;28;88391;-72
2023/02/22 09:54:33;;;;;;;11.32;3.47;;;22.30;42.10;;;;;;4972896;28;87549;-74
2023/02/22 09:57:03;;;;;;;13.80;3.53;;;22.30;41.80;;;;;;4973538;28;89010;-74
2023/02/22 09:59:38;;;;;;;9.27;3.42;;;23.10;41.30;;;;;;4972641;28;87731;-73
2023/02/22 10:02:29;;;;;;;11.55;3.58;;;23.60;40.50;;;;;;4971340;28;87398;-73
2023/02/22 10:05:20;;;;;;;12.00;4.03;;;23.10;39.50;;;;;;4970985;28;87154;-73
2023/02/22 10:07:54;;;;;;;12.35;3.33;;;24.20;40.00;;;;;;4967348;28;87627;-74
2023/02/22 10:10:32;;;;;;;11.25;3.05;;;25.80;37.80;;;;;;4973407;28;88623;-74
2023/02/22 10:13:22;;;;;;;7.15;3.58;;;25.50;36.60;;;;;;4974627;28;87346;-73
2023/02/22 10:15:47;;;;;;;8.88;3.42;;;24.80;37.70;;;;;;4987755;28;87084;-74
2023/02/22 10:18:31;;;;;;;10.57;3.05;;;26.30;36.70;;;;;;4984326;28;89394;-74
2023/02/22 10:21:13;;;;;;;12.57;3.45;;;26.70;36.00;;;;;;4981971;28;88311;-73
2023/02/22 10:23:58;;;;;;;10.15;3.88;;;25.90;36.10;;;;;;4978097;28;87488;-73
2023/02/22 10:26:28;;;;;;;10.23;3.42;;;23.70;37.20;;;;;;4976161;28;87435;-73
2023/02/22 10:29:00;;;;;;;7.53;3.22;;;21.90;40.70;;;;;;4975329;28;87993;-72
2023/02/22 10:31:38;;;;;;;5.88;2.95;;;20.50;41.80;;;;;;4977725;28;87547;-72
2023/02/22 10:34:11;;;;;;;7.10;3.42;;;19.40;43.90;;;;;;4968831;28;87429;-72
2023/02/22 10:36:38;;;;;;;7.93;2.97;;;18.70;44.80;;;;;;4975828;28;87240;-72
2023/02/22 10:39:32;;;;;;;6.72;2.85;;;18.00;47.30;;;;;;4985448;28;88720;-72
2023/02/22 10:42:04;;;;;;;9.55;3.22;;;17.30;49.70;;;;;;4972775;28;89082;-72
2023/02/22 10:44:38;;;;;;;6.80;2.78;;;17.20;51.00;;;;;;4976475;28;88754;-72
2023/02/22 10:47:13;;;;;;;9.45;3.05;;;17.60;50.30;;;;;;4966992;28;88764;-72
2023/02/22 10:49:54;;;;;;;7.82;3.08;;;17.90;50.50;;;;;;4970795;28;87687;-72
2023/02/22 10:52:26;;;;;;;10.52;3.05;;;18.40;50.20;;;;;;4984600;28;87252;-72
2023/02/22 10:54:56;;;;;;;8.90;3.10;;;18.60;49.50;;;;;;4984992;28;87372;-72
2023/02/22 10:57:26;;;;;;;7.25;2.67;;;18.30;49.90;;;;;;4976481;28;87734;-73
2023/02/22 10:59:52;;;;;;;6.65;3.08;;;18.00;49.80;;;;;;4975322;28;89422;-72
2023/02/22 11:02:27;;;;;;;5.72;2.72;;;17.70;52.50;;;;;;4981981;28;87106;-72
2023/02/22 11:04:56;;;;;;;6.57;3.05;;;17.30;52.80;;;;;;4970632;28;87813;-71
2023/02/22 11:07:22;;;;;;;10.50;2.75;;;16.80;53.00;;;;;;4970197;28;88500;-71
2023/02/22 11:09:54;;;;;;;7.45;3.17;;;16.50;53.40;;;;;;4977223;28;89002;-72
2023/02/22 11:12:38;;;;;;;7.68;3.10;;;16.30;55.60;;;;;;4971088;28;88757;-72
2023/02/22 11:15:16;;;;;;;9.43;3.05;;;16.00;54.90;;;;;;4986679;28;87474;-71
2023/02/22 11:17:44;;;;;;;7.43;3.17;;;15.50;57.10;;;;;;4995676;28;87530;-72
2023/02/22 11:20:37;;;;;;;8.73;3.15;;;15.20;58.20;;;;;;4977007;28;88299;-71
2023/02/22 11:23:04;;;;;;;9.07;3.03;;;15.10;58.50;;;;;;4973094;28;87416;-71
2023/02/22 11:25:35;;;;;;;7.63;3.00;;;15.00;58.60;;;;;;4968539;28;89016;-72
2023/02/22 11:28:29;;;;;;;13.95;3.05;;;15.10;60.30;;;;;;4969644;28;87875;-72
2023/02/22 11:30:57;;;;;;;8.32;3.28;;;15.10;58.60;;;;;;4972660;28;88202;-71
2023/02/22 11:33:24;;;;;;;10.27;3.72;;;15.00;59.20;;;;;;4967310;28;87819;-71
2023/02/22 11:35:55;;;;;;;11.88;3.25;;;15.00;59.80;;;;;;4967877;28;88782;-73
2023/02/22 11:38:27;;;;;;;10.10;3.53;;;15.10;60.00;;;;;;4965345;28;88586;-72
2023/02/22 11:41:04;;;;;;;12.27;3.70;;;15.00;58.50;;;;;;4974643;28;87966;-72
2023/02/22 11:43:30;;;;;;;8.57;3.60;;;15.00;60.40;;;;;;4968404;28;87828;-72
2023/02/22 11:45:59;;;;;;;9.40;4.10;;;15.00;60.10;;;;;;4964499;28;87564;-73
2023/02/22 11:48:27;;;;;;;7.55;3.20;;;15.00;59.70;;;;;;4957315;28;87879;-71
2023/02/22 11:51:15;;;;;;;8.30;3.10;;;14.80;59.30;;;;;;4964675;28;90274;-72
2023/02/22 11:54:10;;;;;;;11.05;3.45;;;14.60;61.00;;;;;;4959348;28;87775;-70
2023/02/22 11:56:44;;;;;;;;;;;14.50;61.20;;;;;;4966334;28;89029;-70
2023/02/22 11:59:57;;;;;;;9.30;3.40;;;14.60;62.10;;;;;;4964999;28;87679;-74
2023/02/22 12:02:26;;;;;;;8.32;3.50;;;14.60;60.20;;;;;;4939649;28;89870;-72
2023/02/22 12:05:17;;;;;;;9.30;3.42;;;14.70;61.90;;;;;;4965106;28;89539;-73
2023/02/22 12:08:13;;;;;;;9.98;3.97;;;14.60;60.40;;;;;;4969017;28;88009;-71
2023/02/22 12:11:27;;;;;;;7.93;3.30;;;14.60;61.50;;;;;;4969511;28;87753;-72
2023/02/22 12:14:06;;;;;;;8.88;3.33;;;14.70;62.70;;;;;;4970516;28;89151;-72
2023/02/22 12:16:58;;;;;;;12.23;3.55;;;14.60;61.60;;;;;;4973665;28;87329;-73
2023/02/22 12:19:38;;;;;;;9.40;4.22;;;14.40;61.60;;;;;;4978427;28;87509;-71
2023/02/22 12:22:34;;;;;;;14.63;5.20;;;14.50;63.00;;;;;;4988655;28;86828;-72
2023/02/22 12:25:13;;;;;;;8.63;4.00;;;14.50;63.40;;;;;;4977953;28;87675;-72
2023/02/22 12:27:44;;;;;;;13.93;4.40;;;14.50;64.50;;;;;;4978955;28;87939;-73
2023/02/22 12:30:28;;;;;;;9.10;4.05;;;14.60;63.30;;;;;;4976975;28;88427;-72
2023/02/22 12:33:00;;;;;;;10.57;3.83;;;14.60;62.40;;;;;;4976683;28;88063;-72
2023/02/22 12:35:34;;;;;;;11.82;4.00;;;14.70;62.20;;;;;;4979582;28;87762;-72
2023/02/22 12:38:13;;;;;;;13.93;4.25;;;14.80;62.10;;;;;;4990599;28;87763;-72
2023/02/22 12:40:52;;;;;;;8.75;4.22;;;14.80;62.40;;;;;;4977265;28;87543;-72
2023/02/22 12:43:47;;;;;;;13.93;4.35;;;14.70;60.30;;;;;;4971681;28;89086;-72
2023/02/22 12:46:32;;;;;;;9.45;4.15;;;14.60;61.80;;;;;;4960810;28;87488;-72
2023/02/22 12:49:16;;;;;;;9.20;3.80;;;14.60;62.20;;;;;;4971617;28;86935;-72
2023/02/22 12:51:51;;;;;;;13.07;4.55;;;14.40;63.10;;;;;;4974221;28;87485;-73
2023/02/22 12:54:42;;;;;;;10.00;4.00;;;14.40;61.50;;;;;;4978704;28;88626;-73
2023/02/22 12:57:19;;;;;;;9.20;4.10;;;14.50;61.60;;;;;;4976498;28;89215;-72
2023/02/22 12:59:51;;;;;;;11.68;4.10;;;14.50;61.00;;;;;;4977957;28;88794;-72
2023/02/22 13:02:35;;;;;;;10.68;3.92;;;14.60;61.50;;;;;;4978017;28;88698;-72
2023/02/22 13:05:01;;;;;;;10.20;3.65;;;14.60;61.10;;;;;;4985203;28;87508;-72
2023/02/22 13:07:55;;;;;;;10.75;4.07;;;14.60;60.40;;;;;;4985611;28;88742;-72
2023/02/22 13:10:26;;;;;;;8.43;3.65;;;14.70;58.30;;;;;;4975396;28;88107;-73